createdAt,value
2023-08-11T00:00:38.030Z,14.15
2023-08-11T00:07:58.569Z,14.20
2023-08-11T00:15:18.243Z,14.11
2023-08-11T00:22:37.015Z,14.01
2023-08-11T00:29:57.852Z,13.37
2023-08-11T00:37:16.842Z,13.55
2023-08-11T00:44:35.682Z,13.49
2023-08-11T00:51:56.008Z,13.54
2023-08-11T00:59:15.152Z,13.52
2023-08-11T01:06:39.292Z,13.26
2023-08-11T01:14:09.062Z,12.96
2023-08-11T01:21:29.827Z,12.98
2023-08-11T01:28:50.540Z,12.84
2023-08-11T01:36:09.965Z,13.04
2023-08-11T01:43:29.436Z,12.92
2023-08-11T01:50:49.886Z,12.73
2023-08-11T01:58:08.687Z,12.61
2023-08-11T02:05:27.240Z,12.71
2023-08-11T02:12:47.221Z,12.47
2023-08-11T02:20:15.058Z,12.40
2023-08-11T02:27:33.420Z,12.60
2023-08-11T02:34:53.050Z,12.28
2023-08-11T02:42:11.479Z,12.25
2023-08-11T02:49:29.883Z,12.26
2023-08-11T02:56:50.354Z,11.80
2023-08-11T03:04:08.691Z,11.43
2023-08-11T03:11:27.032Z,11.39
2023-08-11T03:18:46.996Z,11.23
2023-08-11T03:26:05.723Z,11.16
2023-08-11T03:33:25.132Z,11.17
2023-08-11T03:40:54.353Z,11.13
2023-08-11T03:48:12.655Z,11.08
2023-08-11T03:55:31.450Z,11.05
2023-08-11T04:02:51.660Z,11.12
2023-08-11T04:10:13.013Z,11.22
2023-08-11T04:17:33.240Z,11.32
2023-08-11T04:24:53.065Z,11.47
2023-08-11T04:32:11.834Z,11.66
2023-08-11T04:39:30.473Z,12.10
2023-08-11T04:46:50.680Z,12.59
2023-08-11T04:54:09.088Z,13.56
2023-08-11T05:01:27.560Z,14.09
2023-08-11T05:08:48.597Z,14.26
2023-08-11T05:16:06.942Z,14.99
2023-08-11T05:23:25.229Z,15.57
2023-08-11T05:30:45.030Z,14.78
2023-08-11T05:38:03.300Z,16.86
2023-08-11T05:45:21.665Z,18.10
2023-08-11T05:52:41.525Z,18.41
2023-08-11T06:00:00.118Z,18.31
2023-08-11T06:07:19.498Z,19.34
2023-08-11T06:14:39.275Z,19.71
2023-08-11T06:21:57.653Z,19.85
2023-08-11T06:29:16.436Z,20.43
2023-08-11T06:36:36.187Z,22.33
2023-08-11T06:43:55.298Z,21.80
2023-08-11T06:51:13.446Z,22.62
2023-08-11T06:58:33.005Z,23.00
2023-08-11T07:05:53.025Z,22.91
2023-08-11T07:13:11.393Z,23.15
2023-08-11T07:20:31.061Z,23.37
2023-08-11T07:27:49.277Z,22.86
2023-08-11T07:35:08.606Z,24.63
2023-08-11T07:42:28.319Z,24.56
2023-08-11T07:49:46.712Z,24.81
2023-08-11T07:57:05.247Z,25.08
2023-08-11T08:04:24.823Z,26.16
2023-08-11T08:11:44.899Z,25.85
2023-08-11T08:19:04.045Z,26.08
2023-08-11T08:26:23.747Z,25.58
2023-08-11T08:33:41.897Z,26.83
2023-08-11T08:41:00.189Z,26.33
2023-08-11T08:48:24.923Z,26.96
2023-08-11T08:55:43.280Z,27.09
2023-08-11T09:03:01.795Z,27.05
2023-08-11T09:10:21.833Z,27.61
2023-08-11T09:17:40.740Z,27.55
2023-08-11T09:24:59.197Z,27.54
2023-08-11T09:32:18.784Z,28.13
2023-08-11T09:39:38.573Z,27.64
2023-08-11T09:46:57.819Z,28.57
2023-08-11T09:54:17.976Z,28.74
2023-08-11T10:01:37.939Z,28.15
2023-08-11T10:08:56.544Z,28.07
2023-08-11T10:16:16.670Z,28.62
2023-08-11T10:23:35.699Z,29.11
2023-08-11T10:30:58.055Z,26.84
2023-08-11T10:38:26.121Z,27.54
2023-08-11T10:45:45.012Z,28.53
2023-08-11T10:53:08.828Z,28.78
2023-08-11T11:00:28.378Z,28.64
2023-08-11T11:07:46.662Z,28.63
2023-08-11T11:15:05.668Z,28.39
2023-08-11T11:22:26.908Z,27.23
2023-08-11T11:29:45.066Z,27.68
2023-08-11T11:37:05.887Z,28.26
2023-08-11T11:44:25.634Z,29.14
2023-08-11T11:51:44.365Z,28.32
2023-08-11T11:59:03.252Z,27.58
2023-08-11T12:06:23.437Z,26.62
2023-08-11T12:13:44.989Z,26.20
2023-08-11T12:21:05.326Z,25.94
2023-08-11T12:28:25.059Z,27.70
2023-08-11T12:35:43.425Z,26.85
2023-08-11T12:43:01.812Z,26.68
2023-08-11T12:50:23.421Z,26.31
2023-08-11T12:57:41.728Z,25.47
2023-08-11T13:04:59.836Z,25.06
2023-08-11T13:12:19.475Z,25.05
2023-08-11T13:19:37.780Z,25.48
2023-08-11T13:26:55.980Z,26.06
2023-08-11T13:34:15.559Z,25.68
2023-08-11T13:41:33.741Z,25.76
2023-08-11T13:48:51.918Z,25.40
2023-08-11T13:56:13.168Z,26.00
2023-08-11T14:03:31.382Z,26.73
2023-08-11T14:10:49.786Z,26.08
2023-08-11T14:18:09.733Z,25.87
2023-08-11T14:25:27.975Z,25.57
2023-08-11T14:32:46.150Z,25.85
2023-08-11T14:40:07.055Z,25.34
2023-08-11T14:47:25.196Z,25.50
2023-08-11T14:54:43.553Z,25.70
2023-08-11T15:02:03.182Z,25.31
2023-08-11T15:09:21.296Z,25.58
2023-08-11T15:16:39.650Z,25.41
2023-08-11T15:23:59.211Z,25.22
2023-08-11T15:31:17.541Z,24.88
2023-08-11T15:38:35.839Z,24.93
2023-08-11T15:45:55.671Z,24.74
2023-08-11T15:53:15.236Z,24.65
2023-08-11T16:00:33.439Z,24.58
2023-08-11T16:07:53.168Z,24.51
2023-08-11T16:15:11.673Z,24.38
2023-08-11T16:22:31.474Z,24.31
2023-08-11T16:29:52.982Z,24.04
2023-08-11T16:37:12.671Z,23.95
2023-08-11T16:44:30.765Z,23.91
2023-08-11T16:51:50.429Z,23.67
2023-08-11T16:59:08.662Z,23.49
2023-08-11T17:06:27.103Z,23.29
2023-08-11T17:13:48.546Z,23.13
2023-08-11T17:21:06.824Z,22.79
2023-08-11T17:28:25.061Z,22.72
2023-08-11T17:35:44.730Z,22.57
2023-08-11T17:43:03.086Z,22.30
2023-08-11T17:50:21.259Z,22.09
2023-08-11T17:57:40.866Z,21.88
2023-08-11T18:04:59.542Z,21.57
2023-08-11T18:12:17.668Z,21.21
2023-08-11T18:19:37.296Z,21.01
2023-08-11T18:26:55.351Z,21.08
2023-08-11T18:34:13.806Z,20.92
2023-08-11T18:41:33.696Z,20.61
2023-08-11T18:49:03.203Z,20.36
2023-08-11T18:56:22.003Z,20.08
2023-08-11T19:03:42.087Z,20.17
2023-08-11T19:11:01.124Z,19.94
2023-08-11T19:18:19.874Z,19.75
2023-08-11T19:26:22.998Z,19.27
2023-08-11T19:33:42.816Z,19.11
2023-08-11T19:41:01.249Z,19.14
2023-08-11T19:48:19.714Z,18.67
2023-08-11T19:55:39.564Z,18.25
2023-08-11T20:02:57.886Z,18.08
2023-08-11T20:10:16.264Z,17.78
2023-08-11T20:17:36.041Z,17.58
2023-08-11T20:24:54.373Z,17.54
2023-08-11T20:32:13.140Z,17.53
2023-08-11T20:39:38.377Z,17.46
2023-08-11T20:46:56.864Z,17.53
2023-08-11T20:54:15.244Z,17.56
2023-08-11T21:01:35.354Z,17.42
2023-08-11T21:08:53.822Z,17.23
2023-08-11T21:16:12.550Z,17.17
2023-08-11T21:23:32.633Z,17.09
2023-08-11T21:31:03.781Z,16.97
2023-08-11T21:38:26.335Z,16.83
2023-08-11T21:45:46.534Z,16.85
2023-08-11T21:53:21.292Z,16.67
2023-08-11T22:00:45.105Z,16.52
2023-08-11T22:08:05.702Z,16.38
2023-08-11T22:15:24.441Z,16.36
2023-08-11T22:22:42.942Z,16.31
2023-08-11T22:30:03.391Z,16.26
2023-08-11T22:37:22.066Z,16.24
2023-08-11T22:44:40.545Z,16.08
2023-08-11T22:52:00.428Z,15.94
2023-08-11T22:59:21.049Z,15.83
2023-08-11T23:06:39.486Z,15.70
2023-08-11T23:13:59.713Z,15.58
2023-08-11T23:21:18.189Z,15.55
2023-08-11T23:28:37.431Z,15.51
2023-08-11T23:35:57.263Z,15.45
2023-08-11T23:43:16.197Z,15.28
2023-08-11T23:50:34.714Z,15.18
2023-08-11T23:57:54.735Z,15.16
